KCNU/CNU METAR and TAF weather

Enter ICAO airport designator
Station Type Date Time Source
KCNU METAR 2022/09/26 08:52 UTC NOAA

KCNU 260852Z AUTO A3011 RMK AO2 SLPNO 54000 PWINO FZRANO


Station Type Date Time Source
KCNU Decoded METAR 2022/09/26 08:52 UTC NOAA

CHANUTE JOHNSON AIRPORT, KS, United States (KCNU) 37-40N 95-29W 297M
Sep 26, 2022 - 04:52 AM EDT / 2022.09.26 0852 UTC
Pressure (altimeter): 30.11 in. Hg (1019 hPa)
Pressure tendency: the same as three hours ago
ob: KCNU 260852Z AUTO A3011 RMK AO2 SLPNO 54000 PWINO FZRANO
cycle: 9

Station Type Date Time Source
KCNU TAF 2022/09/26 06:46 UTC NOAA

TAF KCNU 260544Z 2606/2706 VRB03KT P6SM SKC
AMD NOT SKED

Example: see airport list